Time;durP1;ratioP1;P1;durP2;ratioP2;P2;SDS_P1;SDS_P2;PMS_P1;PMS_P2;Temp;Humidity;BMP_temperature;BMP_pressure;BME280_temperature;BME280_humidity;BME280_pressure;Samples;Min_cycle;Max_cycle;Signal;HPM_P1;HPM_P2
2024/03/23 10:00:21;;;;;;;12.43;1.75;;;;;;;14.04;100.00;100959.34;5034448;26;20127;-76
2024/03/23 10:02:46;;;;;;;14.15;1.90;;;;;;;14.19;100.00;100961.06;4987473;28;20094;-76
2024/03/23 10:05:22;;;;;;;11.57;1.77;;;;;;;14.37;100.00;100960.13;5001535;28;20041;-75
2024/03/23 10:07:51;;;;;;;12.90;2.20;;;;;;;14.42;100.00;100965.63;4998152;28;20442;-75
2024/03/23 10:10:17;;;;;;;16.30;2.30;;;;;;;14.46;100.00;100965.84;5010236;28;20060;-76
2024/03/23 10:12:52;;;;;;;15.52;2.40;;;;;;;14.53;100.00;100961.53;4998388;28;20037;-76
2024/03/23 10:15:24;;;;;;;11.75;2.05;;;;;;;14.67;100.00;100960.72;5005042;28;20091;-75
2024/03/23 10:17:50;;;;;;;11.70;2.20;;;;;;;14.80;100.00;100953.47;5033527;28;20682;-75
2024/03/23 10:20:22;;;;;;;11.43;1.77;;;;;;;14.95;100.00;100945.56;5021089;28;20060;-75
2024/03/23 10:23:00;;;;;;;10.35;1.80;;;;;;;15.00;100.00;100947.44;4995379;28;20051;-75
2024/03/23 10:25:28;;;;;;;14.68;2.50;;;;;;;15.14;100.00;100939.84;5018866;28;20037;-75
2024/03/23 10:28:18;;;;;;;10.02;2.05;;;;;;;15.31;100.00;100941.97;5006737;28;20044;-75
2024/03/23 10:37:47;;;;;;;12.45;1.98;;;;;;;15.94;100.00;100947.75;5053001;28;20108;-75
2024/03/23 10:40:12;;;;;;;10.48;1.63;;;;;;;16.01;100.00;100942.50;5031924;28;20040;-75
2024/03/23 10:42:38;;;;;;;14.38;1.92;;;;;;;16.13;98.66;100941.91;5054519;28;20041;-75
2024/03/23 10:45:05;;;;;;;9.55;1.77;;;;;;;16.18;98.80;100936.19;5033121;28;20071;-75
2024/03/23 10:47:32;;;;;;;8.40;2.20;;;;;;;16.25;93.41;100939.38;5005887;28;20755;-75
2024/03/23 10:49:57;;;;;;;13.85;2.50;;;;;;;16.28;89.62;100938.72;5023952;28;20025;-75
2024/03/23 10:52:23;;;;;;;9.95;2.03;;;;;;;16.24;88.01;100930.13;4988770;28;20033;-75
2024/03/23 10:54:48;;;;;;;9.40;2.25;;;;;;;16.27;91.20;100928.66;4984728;28;20040;-75
2024/03/23 10:57:16;;;;;;;9.13;1.95;;;;;;;16.31;92.63;100913.66;5021522;28;20041;-75
2024/03/23 10:59:41;;;;;;;12.50;2.22;;;;;;;16.35;90.88;100918.63;5010459;28;20037;-75
2024/03/23 11:02:08;;;;;;;11.18;1.83;;;;;;;16.39;90.64;100909.25;5015512;28;20136;-75
2024/03/23 11:04:35;;;;;;;13.07;2.15;;;;;;;16.43;88.92;100903.81;5030577;28;20047;-75
2024/03/23 11:07:01;;;;;;;12.25;2.45;;;;;;;16.56;90.55;100908.50;5062994;28;20495;-75
2024/03/23 11:09:40;;;;;;;12.00;2.10;;;;;;;16.63;91.52;100906.06;5083197;28;20072;-75
2024/03/23 11:12:30;;;;;;;9.80;1.67;;;;;;;16.75;91.36;100906.25;5058535;28;20033;-75
2024/03/23 11:15:06;;;;;;;10.15;2.05;;;;;;;16.91;89.08;100902.97;5025718;28;20037;-75
2024/03/23 11:17:33;;;;;;;8.35;1.85;;;;;;;16.99;86.34;100899.38;5049225;28;20032;-74
2024/03/23 11:20:02;;;;;;;10.27;2.30;;;;;;;17.10;86.78;100906.31;5075801;28;20032;-74
2024/03/23 11:22:40;;;;;;;8.73;1.60;;;;;;;17.17;84.22;100897.44;5058040;28;20452;-75
2024/03/23 11:25:24;;;;;;;8.13;1.75;;;;;;;17.25;84.35;100899.41;5058000;28;20082;-74
2024/03/23 11:27:54;;;;;;;10.45;1.92;;;;;;;17.30;82.13;100896.44;5041149;28;20047;-74
2024/03/23 11:30:24;;;;;;;8.48;1.70;;;;;;;17.34;81.27;100894.63;5020577;28;20410;-75
2024/03/23 11:32:50;;;;;;;10.77;1.85;;;;;;;17.37;81.67;100893.94;5040464;28;20040;-74
2024/03/23 11:35:30;;;;;;;7.53;1.50;;;;;;;17.36;80.04;100897.09;5008711;28;20029;-74
2024/03/23 11:38:12;;;;;;;9.75;1.55;;;;;;;17.25;77.79;100892.97;5029560;28;20036;-75
2024/03/23 11:40:42;;;;;;;6.88;1.77;;;;;;;17.27;77.48;100897.06;5024754;28;20075;-74
2024/03/23 11:43:08;;;;;;;5.95;1.48;;;;;;;17.24;78.13;100888.50;5058022;28;20028;-74
2024/03/23 11:45:35;;;;;;;9.02;1.55;;;;;;;17.18;77.07;100885.84;5037632;28;20041;-75
2024/03/23 11:48:12;;;;;;;10.93;1.90;;;;;;;17.11;73.70;100876.28;5062655;28;20373;-75
2024/03/23 11:50:42;;;;;;;14.57;2.00;;;;;;;17.12;74.36;100889.97;5075698;28;20484;-75
2024/03/23 11:53:07;;;;;;;8.55;1.80;;;;;;;17.07;76.02;100895.75;5026368;28;20062;-75
2024/03/23 11:55:52;;;;;;;4.70;1.23;;;;;;;16.87;76.29;100894.41;5050038;28;20509;-75
2024/03/23 11:58:19;;;;;;;7.97;1.13;;;;;;;16.79;75.66;100885.97;5069166;28;20391;-75
2024/03/23 12:00:51;;;;;;;5.55;1.17;;;;;;;16.70;75.87;100886.75;5026821;28;20456;-75
2024/03/23 12:03:18;;;;;;;7.40;0.98;;;;;;;16.60;77.56;100880.63;5060106;28;20048;-75
2024/03/23 12:05:48;;;;;;;5.75;1.55;;;;;;;16.51;77.75;100867.41;5040415;28;20040;-75
2024/03/23 12:08:16;;;;;;;7.00;1.38;;;;;;;16.40;79.17;100868.84;5032992;28;20062;-75
2024/03/23 12:10:44;;;;;;;6.03;1.25;;;;;;;16.39;78.78;100860.78;5079490;28;20040;-75
2024/03/23 12:13:10;;;;;;;10.20;1.58;;;;;;;16.35;77.51;100852.19;5039579;28;20093;-75
2024/03/23 12:15:36;;;;;;;7.10;1.58;;;;;;;16.37;77.28;100847.06;5034153;28;20487;-75
2024/03/23 12:18:08;;;;;;;8.65;1.60;;;;;;;16.33;77.74;100843.28;5053960;28;20052;-75
2024/03/23 12:20:34;;;;;;;;;;;;;;;16.38;76.54;100843.16;5008812;28;20037;-75
2024/03/23 12:23:06;;;;;;;5.68;1.45;;;;;;;16.39;76.48;100846.78;5057394;28;19908;-75
2024/03/23 12:25:32;;;;;;;;;;;;;;;16.35;76.23;100842.94;5057466;28;20029;-75
2024/03/23 12:28:00;;;;;;;9.25;1.65;;;;;;;16.34;75.47;100846.91;5057103;28;19915;-75
2024/03/23 12:30:26;;;;;;;7.05;1.45;;;;;;;16.25;76.25;100853.31;5011131;28;20029;-75
2024/03/23 12:32:51;;;;;;;10.70;1.38;;;;;;;16.17;75.94;100858.88;5038364;28;20044;-75
2024/03/23 12:35:17;;;;;;;6.45;1.40;;;;;;;16.07;76.92;100862.78;5029784;28;20037;-75
2024/03/23 12:37:43;;;;;;;8.00;1.48;;;;;;;15.96;79.69;100861.41;5050914;28;20050;-74
2024/03/23 12:40:15;;;;;;;12.60;1.77;;;;;;;15.84;81.24;100859.22;5067010;28;20033;-74
2024/03/23 12:42:42;;;;;;;11.90;1.40;;;;;;;15.72;83.37;100887.81;5072806;28;20488;-75
2024/03/23 12:45:08;;;;;;;8.63;1.42;;;;;;;15.48;88.69;100885.31;5023982;28;20052;-74
2024/03/23 12:47:33;;;;;;;7.13;1.55;;;;;;;15.01;97.16;100883.91;5037386;28;20037;-75
2024/03/23 12:49:58;;;;;;;6.57;1.67;;;;;;;15.00;94.42;100873.88;5057030;28;20669;-75
2024/03/23 12:52:28;;;;;;;7.43;1.40;;;;;;;14.81;95.99;100838.50;5064575;28;20037;-74
2024/03/23 12:54:55;;;;;;;5.45;1.30;;;;;;;14.62;97.56;100844.22;5011419;28;20091;-74
2024/03/23 12:57:22;;;;;;;8.20;1.52;;;;;;;14.48;100.00;100830.25;5014568;28;20039;-74
2024/03/23 12:59:50;;;;;;;4.82;1.20;;;;;;;14.40;100.00;100831.00;5057361;28;20064;-74
2024/03/23 13:02:19;;;;;;;4.40;1.08;;;;;;;14.34;100.00;100823.84;5004682;28;20049;-74
2024/03/23 13:04:46;;;;;;;8.10;1.33;;;;;;;14.27;100.00;100815.06;5021332;28;20094;-74
2024/03/23 13:07:12;;;;;;;8.55;1.30;;;;;;;14.23;100.00;100817.66;5056990;28;20107;-69
2024/03/23 13:09:38;;;;;;;9.43;1.70;;;;;;;14.26;100.00;100817.03;5059851;28;20054;-69
2024/03/23 13:12:03;;;;;;;9.15;1.50;;;;;;;14.22;100.00;100799.25;5060885;28;20488;-74
2024/03/23 13:14:29;;;;;;;6.57;1.63;;;;;;;14.26;100.00;100805.03;5041028;28;20523;-74
2024/03/23 13:16:54;;;;;;;5.18;1.48;;;;;;;14.27;100.00;100806.69;5024497;28;20373;-74
2024/03/23 13:19:20;;;;;;;5.53;1.02;;;;;;;14.35;100.00;100803.16;5021298;28;20041;-74
2024/03/23 13:21:45;;;;;;;9.00;1.27;;;;;;;14.35;100.00;100797.59;5024554;28;20055;-74
2024/03/23 13:24:10;;;;;;;4.85;1.10;;;;;;;14.36;100.00;100785.25;5028182;28;20456;-74
2024/03/23 13:26:36;;;;;;;5.57;1.13;;;;;;;14.40;100.00;100777.91;5040679;28;20064;-74
2024/03/23 13:29:02;;;;;;;5.70;1.15;;;;;;;14.44;100.00;100778.94;5037451;28;20037;-74
2024/03/23 13:31:27;;;;;;;9.50;1.52;;;;;;;14.45;100.00;100772.19;5053325;28;20025;-74
2024/03/23 13:33:53;;;;;;;6.32;1.25;;;;;;;14.53;100.00;100768.69;5044135;28;20096;-74
2024/03/23 13:36:18;;;;;;;5.82;1.38;;;;;;;14.59;100.00;100769.41;5040612;28;20037;-74
2024/03/23 13:38:48;;;;;;;9.00;1.92;;;;;;;14.58;100.00;100759.38;5018393;28;20036;-74
2024/03/23 13:41:13;;;;;;;7.20;1.58;;;;;;;14.65;100.00;100762.53;5033142;28;20107;-74
2024/03/23 13:43:40;;;;;;;5.55;1.45;;;;;;;14.68;100.00;100749.91;5049138;28;20043;-74
2024/03/23 13:46:05;;;;;;;9.88;1.38;;;;;;;14.67;100.00;100751.88;5061594;28;20047;-74
2024/03/23 13:48:31;;;;;;;7.30;1.27;;;;;;;14.72;100.00;100750.94;5032504;28;20028;-73
2024/03/23 13:50:58;;;;;;;10.10;1.13;;;;;;;14.72;100.00;100734.97;5010487;28;20091;-73
2024/03/23 13:53:23;;;;;;;7.20;1.08;;;;;;;14.75;100.00;100744.72;5065552;28;20041;-74
2024/03/23 13:55:49;;;;;;;6.15;1.42;;;;;;;14.75;100.00;100734.34;5024416;28;20405;-74
2024/03/23 13:58:15;;;;;;;4.43;1.42;;;;;;;14.77;100.00;100731.25;5036592;28;20043;-73
2024/03/23 14:00:42;;;;;;;5.28;0.88;;;;;;;14.75;100.00;100728.75;5042903;28;20076;-74
2024/03/23 14:03:08;;;;;;;7.43;1.27;;;;;;;14.67;100.00;100732.31;5047895;28;20047;-73
2024/03/23 14:05:33;;;;;;;6.15;0.90;;;;;;;14.64;100.00;100727.34;5010408;28;20036;-73
2024/03/23 14:07:59;;;;;;;4.40;1.23;;;;;;;14.60;100.00;100726.34;5026764;28;20033;-74
2024/03/23 14:10:24;;;;;;;5.82;1.30;;;;;;;14.47;100.00;100718.78;5026457;28;20032;-74
2024/03/23 14:12:50;;;;;;;7.35;1.00;;;;;;;14.40;100.00;100710.84;5023334;28;20041;-74
2024/03/23 14:15:15;;;;;;;3.40;0.90;;;;;;;14.35;100.00;100707.31;5039494;28;20045;-74
2024/03/23 14:17:41;;;;;;;4.50;0.65;;;;;;;14.34;100.00;100703.72;5070738;28;20047;-73
2024/03/23 14:20:11;;;;;;;4.07;0.55;;;;;;;14.23;100.00;100693.91;5059610;28;20029;-73
2024/03/23 14:22:36;;;;;;;3.72;0.77;;;;;;;14.30;100.00;100686.75;5023833;28;20041;-73
2024/03/23 14:25:02;;;;;;;3.95;0.90;;;;;;;14.28;100.00;100691.00;5047468;28;20065;-73
2024/03/23 14:27:28;;;;;;;3.45;0.80;;;;;;;14.31;100.00;100687.59;5029994;28;20062;-74
2024/03/23 14:29:53;;;;;;;4.07;0.70;;;;;;;14.28;100.00;100683.44;5026048;28;20047;-74
2024/03/23 14:32:19;;;;;;;3.70;0.70;;;;;;;14.31;100.00;100685.59;5026217;28;20044;-74
2024/03/23 14:34:44;;;;;;;3.83;1.00;;;;;;;14.32;100.00;100686.47;5009847;28;20044;-74
2024/03/23 14:37:10;;;;;;;3.60;1.02;;;;;;;14.31;100.00;100679.19;5026144;28;20028;-73
2024/03/23 14:39:35;;;;;;;1.92;0.80;;;;;;;14.38;100.00;100676.00;5026050;28;20036;-73
2024/03/23 14:42:01;;;;;;;5.05;0.80;;;;;;;14.40;100.00;100665.31;5018171;28;20124;-74
2024/03/23 14:44:28;;;;;;;4.03;0.80;;;;;;;14.38;100.00;100656.44;5031213;28;20036;-73
2024/03/23 14:46:54;;;;;;;3.75;0.73;;;;;;;14.44;100.00;100650.38;5033987;28;20413;-74
2024/03/23 14:49:19;;;;;;;4.50;0.75;;;;;;;14.46;100.00;100648.13;5022553;28;20040;-74
2024/03/23 14:51:45;;;;;;;6.25;0.80;;;;;;;14.44;100.00;100643.97;5044025;28;20036;-74
2024/03/23 14:54:13;;;;;;;4.30;0.80;;;;;;;14.50;100.00;100643.53;5038785;28;20706;-74
2024/03/23 14:56:38;;;;;;;3.50;0.98;;;;;;;14.43;100.00;100623.59;5052183;28;20094;-74
2024/03/23 14:59:04;;;;;;;2.42;0.68;;;;;;;14.49;100.00;100621.50;5008344;28;20036;-74
2024/03/23 15:01:29;;;;;;;2.30;0.63;;;;;;;14.45;100.00;100618.50;5008979;28;20039;-74
2024/03/23 15:03:55;;;;;;;4.55;0.90;;;;;;;14.43;100.00;100620.81;5009364;28;20192;-74
2024/03/23 15:06:20;;;;;;;3.42;1.00;;;;;;;14.38;100.00;100618.13;5025651;28;20040;-73
2024/03/23 15:08:45;;;;;;;1.63;0.65;;;;;;;14.37;100.00;100622.06;5025253;28;20036;-73
2024/03/23 15:11:11;;;;;;;4.35;0.75;;;;;;;14.36;100.00;100612.03;5029023;28;20048;-73
2024/03/23 15:13:37;;;;;;;3.75;0.75;;;;;;;14.32;100.00;100602.66;5037801;28;20408;-73
2024/03/23 15:16:03;;;;;;;3.22;0.75;;;;;;;14.33;100.00;100601.50;5025641;28;20079;-73
2024/03/23 15:18:29;;;;;;;3.03;0.85;;;;;;;14.33;100.00;100609.88;5058318;28;20040;-73
2024/03/23 15:21:02;;;;;;;1.88;0.70;;;;;;;14.31;100.00;100604.59;5041974;28;20505;-73
2024/03/23 15:23:28;;;;;;;4.63;1.00;;;;;;;14.30;100.00;100604.94;5042805;28;20044;-73
2024/03/23 15:26:00;;;;;;;4.90;0.80;;;;;;;14.26;100.00;100592.72;5041632;28;20047;-73
2024/03/23 15:28:38;;;;;;;2.60;0.60;;;;;;;14.22;100.00;100586.94;5025194;28;20039;-73
2024/03/23 15:31:04;;;;;;;3.95;0.68;;;;;;;14.20;100.00;100592.00;5023025;28;20116;-72
2024/03/23 15:33:30;;;;;;;2.53;0.80;;;;;;;14.06;100.00;100578.09;5017222;28;20037;-71
2024/03/23 15:35:59;;;;;;;4.15;0.77;;;;;;;14.05;100.00;100584.84;5041349;28;20526;-73
2024/03/23 15:38:24;;;;;;;3.50;0.70;;;;;;;14.00;100.00;100568.22;5039185;28;20036;-72
2024/03/23 15:40:53;;;;;;;3.60;0.80;;;;;;;13.92;100.00;100566.16;5033015;28;20044;-72
2024/03/23 15:43:18;;;;;;;4.80;1.17;;;;;;;13.86;100.00;100573.00;5024800;28;20051;-73
2024/03/23 15:45:44;;;;;;;4.50;0.80;;;;;;;13.83;100.00;100577.25;5044087;28;20040;-73
2024/03/23 15:48:10;;;;;;;3.47;0.90;;;;;;;13.76;100.00;100554.53;5025281;28;20167;-73
2024/03/23 15:50:37;;;;;;;4.18;1.10;;;;;;;13.57;100.00;100557.47;5024935;28;20052;-74
2024/03/23 15:53:02;;;;;;;2.05;0.70;;;;;;;13.43;100.00;100565.06;5085456;28;20043;-74
2024/03/23 15:55:28;;;;;;;4.97;1.30;;;;;;;13.30;100.00;100575.06;5068593;28;20071;-74
2024/03/23 15:57:53;;;;;;;4.00;1.05;;;;;;;13.18;100.00;100561.63;5026983;28;20037;-74
2024/03/23 16:00:19;;;;;;;5.38;1.10;;;;;;;13.11;100.00;100564.00;5024591;28;20075;-74
2024/03/23 16:02:46;;;;;;;5.13;0.98;;;;;;;13.01;100.00;100555.84;5057935;28;20043;-74
2024/03/23 16:05:11;;;;;;;4.22;1.02;;;;;;;12.89;100.00;100547.97;5025040;28;20041;-70
2024/03/23 16:07:38;;;;;;;5.65;1.50;;;;;;;12.79;100.00;100550.97;5041384;28;20404;-73
2024/03/23 16:10:08;;;;;;;8.45;1.77;;;;;;;12.73;100.00;100546.59;5041593;28;20515;-73
2024/03/23 16:12:34;;;;;;;11.73;1.67;;;;;;;12.66;100.00;100535.06;5069878;28;20089;-70
2024/03/23 16:14:59;;;;;;;8.48;1.17;;;;;;;12.64;100.00;100532.56;5071858;28;20037;-73
2024/03/23 16:17:25;;;;;;;7.78;1.55;;;;;;;12.62;100.00;100520.06;5008458;28;20037;-72
2024/03/23 16:19:50;;;;;;;5.15;1.40;;;;;;;12.62;100.00;100517.28;5040846;28;20029;-73
2024/03/23 16:22:16;;;;;;;4.57;1.00;;;;;;;12.62;100.00;100515.34;5008236;28;20044;-73
2024/03/23 16:24:41;;;;;;;5.60;1.23;;;;;;;12.64;100.00;100520.59;5037570;28;20044;-73
2024/03/23 16:27:07;;;;;;;7.50;1.40;;;;;;;12.63;100.00;100536.50;5024661;28;20036;-73
2024/03/23 16:29:32;;;;;;;5.07;1.42;;;;;;;12.59;100.00;100529.91;5054651;28;20062;-73
2024/03/23 16:31:58;;;;;;;5.63;1.20;;;;;;;12.61;100.00;100537.94;5065976;28;20044;-73
2024/03/23 16:34:23;;;;;;;3.72;1.25;;;;;;;12.62;100.00;100539.56;5038720;28;20449;-73
2024/03/23 16:36:49;;;;;;;8.32;1.70;;;;;;;12.51;100.00;100544.53;5032794;28;20040;-73
2024/03/23 16:39:15;;;;;;;7.47;1.15;;;;;;;12.41;100.00;100551.09;5024433;28;20041;-73
2024/03/23 16:41:40;;;;;;;4.47;1.20;;;;;;;12.39;100.00;100558.94;5021244;28;20033;-72
2024/03/23 16:44:06;;;;;;;8.23;1.80;;;;;;;12.28;100.00;100571.38;5025118;28;20036;-73
2024/03/23 16:46:31;;;;;;;7.28;1.33;;;;;;;12.23;100.00;100572.31;5027873;28;20056;-74
2024/03/23 16:48:57;;;;;;;8.90;1.30;;;;;;;11.82;100.00;100575.69;5028393;28;21441;-73
2024/03/23 16:51:22;;;;;;;4.88;1.30;;;;;;;11.72;100.00;100573.03;5026381;28;20071;-73
2024/03/23 16:53:48;;;;;;;5.22;1.17;;;;;;;11.46;100.00;100580.09;5064926;28;20071;-74
2024/03/23 16:56:14;;;;;;;4.88;1.25;;;;;;;11.38;100.00;100576.84;5067246;28;20392;-73
2024/03/23 16:58:40;;;;;;;4.53;1.20;;;;;;;11.25;100.00;100562.84;5028264;28;20392;-73
2024/03/23 17:01:11;;;;;;;9.63;1.85;;;;;;;11.27;100.00;100564.19;5047175;28;20075;-73
2024/03/23 17:03:37;;;;;;;5.20;1.13;;;;;;;11.22;100.00;100564.25;5025719;28;20555;-71
2024/03/23 17:06:04;;;;;;;4.63;1.20;;;;;;;11.19;100.00;100562.06;5023643;28;20033;-71
2024/03/23 17:08:30;;;;;;;6.60;1.58;;;;;;;11.05;100.00;100547.25;5058548;28;20040;-71
2024/03/23 17:11:00;;;;;;;6.15;1.98;;;;;;;11.03;100.00;100543.91;5041111;28;20061;-71
2024/03/23 17:13:27;;;;;;;6.55;1.40;;;;;;;10.95;100.00;100543.47;5055776;28;20120;-71
2024/03/23 17:15:52;;;;;;;3.22;1.00;;;;;;;10.90;100.00;100532.41;5019335;28;20044;-71
2024/03/23 17:18:18;;;;;;;4.93;1.10;;;;;;;10.83;100.00;100531.91;5002979;28;20044;-71
2024/03/23 17:20:43;;;;;;;4.47;1.67;;;;;;;10.78;100.00;100537.56;5044294;28;20032;-71
2024/03/23 17:23:10;;;;;;;7.38;1.63;;;;;;;10.72;100.00;100528.41;5033184;28;20036;-71
2024/03/23 17:25:35;;;;;;;5.18;1.00;;;;;;;10.68;100.00;100543.22;5024321;28;20040;-71
2024/03/23 17:28:01;;;;;;;7.93;1.13;;;;;;;10.59;100.00;100533.88;5064905;28;20043;-71
2024/03/23 17:30:26;;;;;;;4.65;1.23;;;;;;;10.52;100.00;100536.97;5024795;28;20029;-71
2024/03/23 17:32:52;;;;;;;4.53;1.15;;;;;;;10.47;100.00;100540.66;5037258;28;20119;-71
2024/03/23 17:35:19;;;;;;;5.75;1.52;;;;;;;10.43;100.00;100541.53;5070740;28;20041;-70
2024/03/23 17:37:45;;;;;;;4.97;1.23;;;;;;;10.33;100.00;100536.88;5043600;28;20067;-71
2024/03/23 17:40:11;;;;;;;7.07;1.38;;;;;;;10.29;100.00;100535.81;5060554;28;20029;-71
2024/03/23 17:42:40;;;;;;;5.05;1.50;;;;;;;10.26;100.00;100537.19;5027314;28;20043;-71
2024/03/23 17:45:07;;;;;;;4.68;1.38;;;;;;;10.19;100.00;100535.88;5027024;28;20032;-68
2024/03/23 17:47:36;;;;;;;6.38;1.42;;;;;;;10.15;100.00;100523.72;5040280;28;20424;-71
2024/03/23 17:50:02;;;;;;;7.32;1.65;;;;;;;10.10;100.00;100534.84;5034350;28;20101;-71
2024/03/23 17:52:27;;;;;;;5.50;1.63;;;;;;;10.04;100.00;100537.66;5048313;28;20457;-72
2024/03/23 17:54:53;;;;;;;12.25;2.10;;;;;;;9.99;100.00;100537.69;5039821;28;20116;-70
2024/03/23 17:57:18;;;;;;;8.13;2.22;;;;;;;9.92;100.00;100542.75;5041845;28;20094;-70
2024/03/23 17:59:44;;;;;;;12.93;2.28;;;;;;;9.85;100.00;100533.91;5043251;28;20037;-70
2024/03/23 18:02:09;;;;;;;10.07;3.05;;;;;;;9.63;100.00;100529.63;5041414;28;20052;-70
2024/03/23 18:04:35;;;;;;;9.02;2.70;;;;;;;9.65;100.00;100525.75;5027074;28;20108;-70
2024/03/23 18:07:03;;;;;;;12.05;2.90;;;;;;;9.70;100.00;100525.72;5045650;28;20381;-70
2024/03/23 18:09:28;;;;;;;8.40;2.58;;;;;;;9.68;100.00;100511.31;5024523;28;20118;-70
2024/03/23 18:11:54;;;;;;;8.75;2.30;;;;;;;9.66;100.00;100506.03;5026101;28;20025;-71
2024/03/23 18:14:19;;;;;;;14.38;2.35;;;;;;;9.62;100.00;100519.66;5026379;28;20059;-70
2024/03/23 18:16:45;;;;;;;9.23;2.20;;;;;;;9.60;100.00;100513.56;5026355;28;20396;-70
2024/03/23 18:19:11;;;;;;;9.25;2.40;;;;;;;9.61;100.00;100518.00;5059485;28;20052;-70
2024/03/23 18:21:36;;;;;;;9.98;2.42;;;;;;;9.55;100.00;100527.47;5042630;28;20043;-70
2024/03/23 18:24:02;;;;;;;11.30;2.83;;;;;;;9.51;100.00;100540.25;5077519;28;20036;-71
2024/03/23 18:26:27;;;;;;;8.82;2.40;;;;;;;9.43;100.00;100556.66;5026068;28;20043;-72
2024/03/23 18:28:53;;;;;;;8.73;2.03;;;;;;;9.31;100.00;100543.97;5042321;28;20597;-72
2024/03/23 18:31:20;;;;;;;6.38;1.73;;;;;;;9.21;100.00;100545.94;5059304;28;20098;-72
2024/03/23 18:33:49;;;;;;;7.50;1.92;;;;;;;9.17;100.00;100540.97;5042845;28;20060;-72
2024/03/23 18:36:14;;;;;;;5.90;1.73;;;;;;;9.12;100.00;100541.00;5039272;28;20036;-71
2024/03/23 18:38:40;;;;;;;9.10;2.15;;;;;;;9.10;100.00;100548.75;5021821;28;20493;-71
2024/03/23 18:41:06;;;;;;;4.38;1.67;;;;;;;8.96;100.00;100580.94;5036741;28;20075;-71
2024/03/23 18:43:32;;;;;;;16.65;5.72;;;;;;;8.80;100.00;100604.25;5039365;28;20116;-72
2024/03/23 18:45:58;;;;;;;14.07;4.90;;;;;;;8.71;100.00;100599.28;5009400;28;20035;-71
2024/03/23 18:48:23;;;;;;;9.10;2.60;;;;;;;8.49;100.00;100605.13;5042389;28;20040;-71
2024/03/23 18:50:49;;;;;;;8.18;2.33;;;;;;;8.48;100.00;100602.63;5042493;28;20059;-71
2024/03/23 18:53:14;;;;;;;8.68;1.73;;;;;;;8.28;100.00;100598.75;5056105;28;20028;-71
2024/03/23 18:55:43;;;;;;;10.88;1.75;;;;;;;8.26;100.00;100589.06;5031261;28;20512;-71
2024/03/23 18:58:08;;;;;;;10.10;1.63;;;;;;;8.12;100.00;100583.25;5038960;28;20440;-71
2024/03/23 19:00:34;;;;;;;6.95;1.55;;;;;;;8.07;100.00;100580.47;5062847;28;20056;-71
2024/03/23 19:03:00;;;;;;;8.00;1.80;;;;;;;8.02;100.00;100577.69;5020883;28;20036;-71
2024/03/23 19:05:25;;;;;;;6.72;2.00;;;;;;;8.08;100.00;100571.06;5020492;28;20032;-71
2024/03/23 19:07:51;;;;;;;8.75;2.22;;;;;;;8.03;100.00;100571.06;5009645;28;20045;-71
2024/03/23 19:10:20;;;;;;;11.77;2.10;;;;;;;8.04;100.00;100565.25;5024417;28;20505;-71
2024/03/23 19:12:46;;;;;;;5.78;1.98;;;;;;;8.05;100.00;100568.84;5022957;28;20110;-71
2024/03/23 19:15:11;;;;;;;7.35;2.00;;;;;;;8.07;100.00;100570.22;5016958;28;20040;-71
2024/03/23 19:17:37;;;;;;;8.57;2.45;;;;;;;8.01;100.00;100576.88;5049114;28;20044;-71
2024/03/23 19:20:06;;;;;;;5.97;2.00;;;;;;;8.03;100.00;100573.84;5043162;28;20110;-71
2024/03/23 19:22:32;;;;;;;6.28;1.88;;;;;;;8.06;100.00;100567.75;5056989;28;20040;-71
2024/03/23 19:24:59;;;;;;;10.02;2.28;;;;;;;8.11;100.00;100564.13;5038491;28;20037;-71
2024/03/23 19:27:25;;;;;;;8.75;2.35;;;;;;;8.11;100.00;100565.00;5022462;28;20041;-71
2024/03/23 19:29:50;;;;;;;7.68;2.58;;;;;;;8.12;100.00;100569.41;5021356;28;20749;-71
2024/03/23 19:32:16;;;;;;;13.13;2.85;;;;;;;8.08;100.00;100571.06;5022915;28;20036;-71
2024/03/23 19:34:42;;;;;;;6.10;2.13;;;;;;;8.09;100.00;100569.13;4984330;28;20037;-71
2024/03/23 19:37:07;;;;;;;7.18;2.15;;;;;;;8.11;100.00;100569.66;5026991;28;20119;-71
2024/03/23 19:39:33;;;;;;;9.10;2.10;;;;;;;8.04;100.00;100556.13;5026792;28;20040;-71
2024/03/23 19:41:58;;;;;;;8.70;1.80;;;;;;;8.07;100.00;100553.63;5008795;28;20040;-71
2024/03/23 19:44:24;;;;;;;6.50;1.90;;;;;;;8.03;100.00;100547.00;5021889;28;20472;-71
2024/03/23 19:46:50;;;;;;;8.80;2.45;;;;;;;8.06;100.00;100551.16;5022804;28;20039;-70
2024/03/23 19:49:15;;;;;;;5.40;1.83;;;;;;;8.04;100.00;100550.59;5027035;28;20101;-71
2024/03/23 19:51:41;;;;;;;7.88;1.67;;;;;;;8.02;100.00;100544.50;5034077;28;20423;-71
2024/03/23 19:54:07;;;;;;;5.93;1.92;;;;;;;8.03;100.00;100537.88;5025016;28;20040;-71
2024/03/23 19:56:33;;;;;;;5.72;1.35;;;;;;;8.02;100.00;100539.81;5040260;28;20055;-73
2024/03/23 19:58:58;;;;;;;7.10;1.67;;;;;;;7.99;100.00;100539.53;5016729;28;20032;-71
2024/03/23 20:01:24;;;;;;;4.43;1.20;;;;;;;8.00;100.00;100546.72;5047332;28;20045;-71
2024/03/23 20:03:50;;;;;;;5.72;1.60;;;;;;;7.98;100.00;100544.22;5074598;28;20074;-72
2024/03/23 20:06:16;;;;;;;5.13;1.63;;;;;;;7.96;100.00;100546.44;5021407;28;20041;-72
2024/03/23 20:08:42;;;;;;;4.88;1.58;;;;;;;7.90;100.00;100541.19;5023628;28;20090;-71
2024/03/23 20:11:08;;;;;;;9.60;1.63;;;;;;;7.89;100.00;100545.06;5051391;28;20047;-71
2024/03/23 20:13:33;;;;;;;6.97;1.50;;;;;;;7.86;100.00;100542.84;5041914;28;20033;-71
2024/03/23 20:16:02;;;;;;;9.63;1.90;;;;;;;7.86;100.00;100548.38;5024983;28;20044;-71
2024/03/23 20:18:30;;;;;;;7.28;1.20;;;;;;;7.77;100.00;100554.47;5028000;28;20029;-71
2024/03/23 20:21:01;;;;;;;9.98;1.50;;;;;;;7.77;100.00;100548.94;5028466;28;20480;-71
2024/03/23 20:23:27;;;;;;;10.40;1.52;;;;;;;7.70;100.00;100551.13;5029460;28;20392;-71
2024/03/23 20:25:53;;;;;;;8.73;1.70;;;;;;;7.71;100.00;100558.28;5061770;28;20036;-71
2024/03/23 20:28:19;;;;;;;7.93;1.45;;;;;;;7.60;100.00;100560.22;5044845;28;20526;-71
2024/03/23 20:30:47;;;;;;;7.28;1.52;;;;;;;7.59;100.00;100557.72;5028299;28;20033;-71
2024/03/23 20:33:13;;;;;;;8.80;2.22;;;;;;;7.59;100.00;100557.72;5041976;28;20122;-71
2024/03/23 20:35:51;;;;;;;6.13;1.30;;;;;;;7.56;100.00;100558.28;5057156;28;20071;-71
2024/03/23 20:38:17;;;;;;;7.72;1.63;;;;;;;7.53;100.00;100556.88;5069827;28;20423;-71
2024/03/23 20:40:42;;;;;;;10.05;1.77;;;;;;;7.48;100.00;100558.81;5045212;28;20029;-71
2024/03/23 20:43:12;;;;;;;10.52;1.70;;;;;;;7.48;100.00;100561.56;5028967;28;20091;-71
2024/03/23 20:45:37;;;;;;;6.13;1.33;;;;;;;7.44;100.00;100554.91;5062415;28;20029;-71
2024/03/23 20:48:03;;;;;;;6.72;1.50;;;;;;;7.42;100.00;100562.66;5044785;28;20090;-71
2024/03/23 20:50:29;;;;;;;8.45;1.45;;;;;;;7.41;100.00;100561.00;5042797;28;20127;-72
2024/03/23 20:52:54;;;;;;;8.32;1.42;;;;;;;7.41;100.00;100561.00;5061082;28;20040;-72
2024/03/23 20:55:20;;;;;;;7.28;1.38;;;;;;;7.38;100.00;100554.94;5019196;28;20033;-71
2024/03/23 20:57:46;;;;;;;6.13;1.70;;;;;;;7.37;100.00;100553.25;5030309;28;20058;-71
2024/03/23 21:00:12;;;;;;;8.60;1.73;;;;;;;7.35;100.00;100557.38;5023328;28;20522;-72
2024/03/23 21:02:38;;;;;;;4.40;1.33;;;;;;;7.34;100.00;100562.09;5041198;28;20102;-71
2024/03/23 21:05:04;;;;;;;5.15;1.50;;;;;;;7.32;100.00;100568.97;5040148;28;20041;-71
2024/03/23 21:07:30;;;;;;;8.50;2.22;;;;;;;7.25;100.00;100569.25;5024537;28;20041;-71
2024/03/23 21:09:56;;;;;;;7.50;2.10;;;;;;;7.29;100.00;100564.81;5038522;28;20037;-71
2024/03/23 21:12:21;;;;;;;6.43;1.60;;;;;;;7.27;100.00;100568.94;5051192;28;20040;-71
2024/03/23 21:14:47;;;;;;;5.50;1.63;;;;;;;7.18;100.00;100568.66;5059632;28;20547;-71
2024/03/23 21:17:13;;;;;;;5.70;1.80;;;;;;;7.19;100.00;100581.38;5049681;28;20033;-71
2024/03/23 21:19:38;;;;;;;9.73;2.28;;;;;;;7.16;100.00;100571.69;5027749;28;20032;-71
2024/03/23 21:22:04;;;;;;;7.57;1.80;;;;;;;7.10;100.00;100588.50;5060798;28;20033;-71
2024/03/23 21:24:29;;;;;;;8.07;2.20;;;;;;;7.08;100.00;100585.19;5027386;28;20040;-71